< Typhoon 195218 1952 Season Typhoon 195220 >
Typhoon 195219 (WILMA)
General InformationTrack Information on Google Maps || Disaster Info.ResourceGoogle EarthGE AnimationAtom FeedGeoJSON
Detalied Best Track (Time Zone = UTC)
Year Month Day Hour Lat. Long. Pressure (hPa) Wind (kt) Class Image Chart
1952 10 21 12 4.6 147.8 1002 0 2 -- Chart
1952 10 21 18 5.1 147.7 1000 0 2 -- Chart
1952 10 22 00 5.4 147.6 1000 0 2 -- Chart
1952 10 22 06 5.8 147.4 995 0 2 -- Chart
1952 10 22 12 6.2 147.3 990 0 2 -- Chart
1952 10 22 18 6.5 147.1 990 0 2 -- Chart
1952 10 23 00 7.0 146.6 988 0 9 -- Chart
1952 10 23 06 7.6 145.9 977 0 9 -- Chart
1952 10 23 12 8.3 145.1 970 0 9 -- Chart
1952 10 23 18 8.9 144.1 965 0 9 -- Chart
1952 10 24 00 9.3 142.8 960 0 9 -- Chart
1952 10 24 06 10.1 141.2 945 0 9 -- Chart
1952 10 24 12 10.6 139.8 940 0 9 -- Chart
1952 10 24 18 10.9 138.5 940 0 9 -- Chart
1952 10 25 00 10.9 136.2 940 0 9 -- Chart
1952 10 25 06 11.0 134.3 930 0 9 -- Chart
1952 10 25 12 11.1 132.7 930 0 9 -- Chart
1952 10 25 18 11.4 130.6 930 0 9 -- Chart
1952 10 26 00 11.4 129.0 930 0 9 -- Chart
1952 10 26 06 11.5 127.4 930 0 9 -- Chart
1952 10 26 12 11.4 126.3 930 0 9 -- Chart
1952 10 26 18 11.5 124.9 950 0 9 -- Chart
1952 10 27 00 11.8 123.5 950 0 9 -- Chart
1952 10 27 06 12.0 122.2 960 0 9 -- Chart
1952 10 27 12 12.7 120.5 960 0 9 -- Chart
1952 10 27 18 12.9 118.8 960 0 9 -- Chart
1952 10 28 00 13.2 116.9 960 0 9 -- Chart
1952 10 28 06 13.4 115.9 960 0 9 -- Chart
1952 10 28 12 13.7 115.0 960 0 9 -- Chart
1952 10 28 18 14.0 113.9 960 0 9 -- Chart
1952 10 29 00 14.3 112.8 960 0 9 -- Chart
1952 10 29 06 14.7 111.6 960 0 9 -- Chart
1952 10 29 12 15.1 110.2 965 0 9 -- Chart
1952 10 29 18 15.9 109.2 965 0 9 -- Chart
1952 10 30 00 16.7 108.0 970 0 9 -- Chart
1952 10 30 06 17.2 107.4 990 0 9 -- Chart
1952 10 30 12 16.5 106.5 995 0 2 -- Chart
1952 10 30 18 15.5 105.0 995 0 2 -- Chart
1952 10 31 00 14.3 104.0 1008 0 2 -- Chart
Japan Meteorological Agency Best Track Data | Correction Date : 1989-06-01
< Typhoon 195218 1952 Season Typhoon 195220 >

Help